Time;durP1;ratioP1;P1;durP2;ratioP2;P2;SDS_P1;SDS_P2;PMS_P1;PMS_P2;Temp;Humidity;BMP_temperature;BMP_pressure;BME280_temperature;BME280_humidity;BME280_pressure;Samples;Min_cycle;Max_cycle;Signal;HPM_P1;HPM_P2
2021/10/14 00:21:13;;;;;;;18.67;15.23;;;;;;;4.13;100.00;100972.25;21041405;27;20577;-67
2021/10/14 01:01:06;;;;;;;13.07;11.13;;;;;;;4.10;100.00;100970.59;21083155;27;20943;-59
2021/10/14 01:21:06;;;;;;;12.47;10.13;;;;;;;4.27;100.00;100962.19;21075747;27;20943;-67
2021/10/14 01:31:08;;;;;;;12.97;10.40;;;;;;;3.76;100.00;100949.47;21058353;27;20782;-69
2021/10/14 01:41:12;;;;;;;12.80;10.87;;;;;;;3.25;100.00;100947.28;21057500;27;20228;-67
2021/10/14 02:50:50;;;;;;;44.90;16.43;;;;;;;2.62;100.00;101007.56;21230314;27;21235;-68
2021/10/14 03:40:41;;;;;;;42.13;13.60;;;;;;;2.71;100.00;101039.00;21062746;27;20629;-68
2021/10/14 04:10:37;;;;;;;20.90;13.60;;;;;;;2.60;100.00;101045.38;21105344;27;1336477;-68
2021/10/14 05:10:35;;;;;;;64.73;18.00;;;;;;;2.60;100.00;101071.75;20988557;27;21081;-68
2021/10/14 05:30:35;;;;;;;56.23;18.20;;;;;;;2.84;100.00;101065.97;21137943;27;20575;-65
2021/10/14 05:40:37;;;;;;;54.63;19.23;;;;;;;3.01;100.00;101068.25;21043822;28;20220;-62
2021/10/14 05:50:41;;;;;;;62.17;20.73;;;;;;;3.21;100.00;101072.19;21083182;27;20225;-61
2021/10/14 06:40:35;;;;;;;16.40;12.40;;;;;;;4.97;100.00;101079.09;21047007;27;20559;-65
2021/10/14 07:30:25;;;;;;;13.43;12.03;;;;;;;5.62;100.00;101086.84;21039875;27;20632;-61
2021/10/14 07:40:28;;;;;;;14.03;10.70;;;;;;;6.02;100.00;101082.03;21058440;27;20305;-62
2021/10/14 09:10:03;;;;;;;5.37;3.47;;;;;;;9.69;100.00;101030.44;21186735;27;20617;-63
2021/10/14 09:50:05;;;;;;;4.37;3.93;;;;;;;11.70;100.00;100995.63;21061024;27;20568;-65
2021/10/14 10:20:00;;;;;;;5.00;4.17;;;;;;;12.42;100.00;100994.88;21060273;27;21261;-61
2021/10/14 10:40:02;;;;;;;7.97;5.40;;;;;;;12.13;100.00;100966.34;20577106;28;21109;-63
2021/10/14 10:50:06;;;;;;;5.07;4.57;;;;;;;12.18;100.00;100948.22;20566957;28;20257;-64
2021/10/14 11:00:11;;;;;;;4.20;3.80;;;;;;;12.71;100.00;100958.25;20566715;28;20226;-61
2021/10/14 11:10:28;;;;;;;3.50;3.20;;;;;;;13.56;100.00;100944.69;20565910;28;20230;-62
2021/10/14 11:20:33;;;;;;;5.47;3.40;;;;;;;13.62;100.00;100930.88;20565104;28;20257;-62
2021/10/14 11:30:38;;;;;;;4.20;2.83;;;;;;;13.61;97.78;100922.94;20568841;28;20240;-59
2021/10/14 12:00:33;;;;;;;5.17;3.40;;;;;;;13.92;100.00;100917.19;21207140;27;21100;-65
2021/10/14 12:20:34;;;;;;;4.90;4.23;;;;;;;13.63;100.00;100910.28;21067946;27;20617;-67
2021/10/14 12:50:41;;;;;;;5.37;3.87;;;;;;;14.09;100.00;100870.41;21063945;27;20575;-60
2021/10/14 13:20:38;;;;;;;17.07;4.97;;;;;;;12.95;100.00;100851.34;21063265;27;20572;-61
2021/10/14 13:30:41;;;;;;;13.03;5.20;;;;;;;12.48;100.00;100828.53;21058760;28;20596;-61
2021/10/14 13:40:49;;;;;;;4.23;3.83;;;;;;;12.25;100.00;100811.25;21045805;28;20714;-66
2021/10/14 13:50:52;;;;;;;11.87;4.77;;;;;;;12.22;100.00;100815.94;21042296;27;20715;-63
2021/10/14 14:00:57;;;;;;;7.23;4.10;;;;;;;12.19;100.00;100816.16;20978071;28;20309;-61
2021/10/14 14:10:59;;;;;;;5.30;4.10;;;;;;;12.14;100.00;100812.88;20969110;28;20236;-62
2021/10/14 14:21:03;;;;;;;5.10;4.60;;;;;;;12.03;100.00;100810.03;20968273;28;20704;-60
2021/10/14 14:31:05;;;;;;;6.00;4.37;;;;;;;11.81;100.00;100806.03;21000463;28;20227;-59
2021/10/14 14:41:09;;;;;;;4.97;4.50;;;;;;;11.51;100.00;100795.34;20992802;28;20222;-61
2021/10/14 14:51:12;;;;;;;5.87;4.37;;;;;;;11.33;100.00;100792.94;20992287;28;20670;-69
2021/10/14 15:01:16;;;;;;;6.60;5.03;;;;;;;11.15;100.00;100779.69;20994577;28;20250;-65
2021/10/14 15:21:17;;;;;;;5.70;4.83;;;;;;;10.81;100.00;100790.63;21070272;27;20597;-60
2021/10/14 15:51:14;;;;;;;4.40;3.87;;;;;;;10.37;100.00;100796.69;21078001;27;20594;-65
2021/10/14 16:21:18;;;;;;;4.43;3.77;;;;;;;10.03;100.00;100802.97;20984620;27;20634;-64
2021/10/14 16:31:24;;;;;;;4.67;3.83;;;;;;;9.96;100.00;100790.06;20974769;28;20609;-65
2021/10/14 16:41:28;;;;;;;5.07;3.77;;;;;;;9.89;100.00;100776.22;21052708;27;20734;-61
2021/10/14 17:01:31;;;;;;;7.60;5.80;;;;;;;9.83;100.00;100762.34;21061801;27;20636;-61
2021/10/14 17:11:36;;;;;;;8.13;6.27;;;;;;;9.83;100.00;100757.88;21058399;28;20233;-63
2021/10/14 17:21:57;;;;;;;6.40;5.80;;;;;;;9.80;100.00;100742.03;21057826;28;20234;-63
2021/10/14 17:42:24;;;;;;;6.57;5.87;;;;;;;9.86;100.00;100738.19;21048448;27;21731;-65
2021/10/14 17:52:29;;;;;;;7.50;6.17;;;;;;;9.86;100.00;100735.53;21052481;27;20621;-63
2021/10/14 18:43:16;;;;;;;9.23;7.27;;;;;;;9.78;100.00;100668.47;21066594;27;20629;-61
2021/10/14 19:03:20;;;;;;;11.43;7.87;;;;;;;9.81;100.00;100663.81;21229639;27;20685;-61
2021/10/14 20:34:30;;;;;;;10.03;8.63;;;;;;;9.10;100.00;100667.72;20925066;27;20636;-65
2021/10/14 20:54:42;;;;;;;8.30;7.50;;;;;;;9.09;100.00;100636.69;21130834;27;20389;-66
2021/10/14 21:24:40;;;;;;;11.07;9.57;;;;;;;9.36;100.00;100624.56;21147432;27;20297;-74
2021/10/14 21:45:04;;;;;;;10.03;8.40;;;;;;;9.45;100.00;100615.22;21227682;27;20571;-69
2021/10/14 21:55:07;;;;;;;8.67;7.77;;;;;;;9.45;100.00;100607.22;21226397;27;20307;-71
2021/10/14 22:35:14;;;;;;;10.63;9.53;;;;;;;9.45;100.00;100581.44;21111728;27;1346634;-72
2021/10/14 22:45:16;;;;;;;10.70;9.60;;;;;;;9.44;100.00;100563.75;21143139;28;20266;-76
2021/10/14 22:55:20;;;;;;;10.00;9.00;;;;;;;9.50;100.00;100546.56;21142401;28;20824;-76
2021/10/14 23:25:19;;;;;;;9.13;8.23;;;;;;;9.59;100.00;100530.06;21156290;27;20569;-72
